sensor_id;sensor_type;location;lat;lon;timestamp;temperature;humidity
5246;DHT22;54412;51.206;6.888;2022-11-09T00:01:19;15.40;99.90
5246;DHT22;54412;51.206;6.888;2022-11-09T00:03:46;15.40;99.90
5246;DHT22;54412;51.206;6.888;2022-11-09T00:06:12;15.40;99.90
5246;DHT22;54412;51.206;6.888;2022-11-09T00:08:39;15.40;99.90
5246;DHT22;54412;51.206;6.888;2022-11-09T00:11:08;15.40;99.90
5246;DHT22;54412;51.206;6.888;2022-11-09T00:13:40;15.40;99.90
5246;DHT22;54412;51.206;6.888;2022-11-09T00:16:09;15.40;99.90
5246;DHT22;54412;51.206;6.888;2022-11-09T00:18:37;15.40;99.90
5246;DHT22;54412;51.206;6.888;2022-11-09T00:21:12;15.40;99.90
5246;DHT22;54412;51.206;6.888;2022-11-09T00:23:42;15.40;99.90
5246;DHT22;54412;51.206;6.888;2022-11-09T00:26:09;15.30;99.90
5246;DHT22;54412;51.206;6.888;2022-11-09T00:28:37;15.30;99.90
5246;DHT22;54412;51.206;6.888;2022-11-09T00:31:11;15.30;99.90
5246;DHT22;54412;51.206;6.888;2022-11-09T00:33:39;15.30;99.90
5246;DHT22;54412;51.206;6.888;2022-11-09T00:36:07;15.30;99.90
5246;DHT22;54412;51.206;6.888;2022-11-09T00:38:36;15.30;99.90
5246;DHT22;54412;51.206;6.888;2022-11-09T00:41:06;15.20;99.90
5246;DHT22;54412;51.206;6.888;2022-11-09T00:43:33;15.20;99.90
5246;DHT22;54412;51.206;6.888;2022-11-09T00:45:59;15.20;99.90
5246;DHT22;54412;51.206;6.888;2022-11-09T00:48:24;15.20;99.90
5246;DHT22;54412;51.206;6.888;2022-11-09T00:50:55;15.20;99.90
5246;DHT22;54412;51.206;6.888;2022-11-09T00:53:22;15.20;99.90
5246;DHT22;54412;51.206;6.888;2022-11-09T00:55:55;15.20;99.90
5246;DHT22;54412;51.206;6.888;2022-11-09T00:58:22;15.20;99.90
5246;DHT22;54412;51.206;6.888;2022-11-09T01:00:48;15.20;99.90
5246;DHT22;54412;51.206;6.888;2022-11-09T01:03:14;15.10;99.90
5246;DHT22;54412;51.206;6.888;2022-11-09T01:05:39;15.10;99.90
5246;DHT22;54412;51.206;6.888;2022-11-09T01:08:06;15.10;99.90
5246;DHT22;54412;51.206;6.888;2022-11-09T01:10:31;15.00;99.90
5246;DHT22;54412;51.206;6.888;2022-11-09T01:12:58;15.00;99.90
5246;DHT22;54412;51.206;6.888;2022-11-09T01:15:24;15.00;99.90
5246;DHT22;54412;51.206;6.888;2022-11-09T01:17:50;15.00;99.90
5246;DHT22;54412;51.206;6.888;2022-11-09T01:20:16;15.00;99.90
5246;DHT22;54412;51.206;6.888;2022-11-09T01:22:42;15.00;99.90
5246;DHT22;54412;51.206;6.888;2022-11-09T01:25:08;15.00;99.90
5246;DHT22;54412;51.206;6.888;2022-11-09T01:27:34;15.00;99.90
5246;DHT22;54412;51.206;6.888;2022-11-09T01:30:01;15.00;99.90
5246;DHT22;54412;51.206;6.888;2022-11-09T01:32:29;15.00;99.90
5246;DHT22;54412;51.206;6.888;2022-11-09T01:34:56;15.00;99.90
5246;DHT22;54412;51.206;6.888;2022-11-09T01:37:21;15.00;99.90
5246;DHT22;54412;51.206;6.888;2022-11-09T01:39:47;15.00;99.90
5246;DHT22;54412;51.206;6.888;2022-11-09T01:42:13;15.00;99.90
5246;DHT22;54412;51.206;6.888;2022-11-09T01:44:39;15.00;99.90
5246;DHT22;54412;51.206;6.888;2022-11-09T01:47:11;15.00;99.90
5246;DHT22;54412;51.206;6.888;2022-11-09T01:49:47;14.90;99.90
5246;DHT22;54412;51.206;6.888;2022-11-09T01:52:36;15.00;99.90
5246;DHT22;54412;51.206;6.888;2022-11-09T01:55:12;14.90;99.90
5246;DHT22;54412;51.206;6.888;2022-11-09T01:57:46;14.90;99.90
5246;DHT22;54412;51.206;6.888;2022-11-09T02:00:17;14.90;99.90
5246;DHT22;54412;51.206;6.888;2022-11-09T02:02:54;14.80;99.90
5246;DHT22;54412;51.206;6.888;2022-11-09T02:05:25;14.90;99.90
5246;DHT22;54412;51.206;6.888;2022-11-09T02:07:54;14.90;99.90
5246;DHT22;54412;51.206;6.888;2022-11-09T02:13:07;14.80;99.90
5246;DHT22;54412;51.206;6.888;2022-11-09T02:15:36;14.90;99.90
5246;DHT22;54412;51.206;6.888;2022-11-09T02:18:03;14.80;99.90
5246;DHT22;54412;51.206;6.888;2022-11-09T02:20:29;14.80;99.90
5246;DHT22;54412;51.206;6.888;2022-11-09T02:22:55;14.80;99.90
5246;DHT22;54412;51.206;6.888;2022-11-09T02:25:21;14.80;99.90
5246;DHT22;54412;51.206;6.888;2022-11-09T02:27:48;14.80;99.90
5246;DHT22;54412;51.206;6.888;2022-11-09T02:30:14;14.80;99.90
5246;DHT22;54412;51.206;6.888;2022-11-09T02:32:41;14.80;99.90
5246;DHT22;54412;51.206;6.888;2022-11-09T02:35:07;14.80;99.90
5246;DHT22;54412;51.206;6.888;2022-11-09T02:37:38;14.80;99.90
5246;DHT22;54412;51.206;6.888;2022-11-09T02:40:17;14.80;99.90
5246;DHT22;54412;51.206;6.888;2022-11-09T02:42:47;14.80;99.90
5246;DHT22;54412;51.206;6.888;2022-11-09T02:45:13;14.80;99.90
5246;DHT22;54412;51.206;6.888;2022-11-09T02:47:38;14.80;99.90
5246;DHT22;54412;51.206;6.888;2022-11-09T02:50:04;14.90;99.90
5246;DHT22;54412;51.206;6.888;2022-11-09T02:52:30;14.90;99.90
5246;DHT22;54412;51.206;6.888;2022-11-09T02:54:56;14.90;99.90
5246;DHT22;54412;51.206;6.888;2022-11-09T02:57:22;14.90;99.90
5246;DHT22;54412;51.206;6.888;2022-11-09T02:59:47;14.90;99.90
5246;DHT22;54412;51.206;6.888;2022-11-09T03:02:13;14.90;99.90
5246;DHT22;54412;51.206;6.888;2022-11-09T03:04:39;14.90;99.90
5246;DHT22;54412;51.206;6.888;2022-11-09T03:07:04;14.90;99.90
5246;DHT22;54412;51.206;6.888;2022-11-09T03:09:31;14.90;99.90
5246;DHT22;54412;51.206;6.888;2022-11-09T03:11:56;14.90;99.90
5246;DHT22;54412;51.206;6.888;2022-11-09T03:14:22;14.90;99.90
5246;DHT22;54412;51.206;6.888;2022-11-09T03:16:48;15.00;99.90
5246;DHT22;54412;51.206;6.888;2022-11-09T03:19:14;14.90;99.90
5246;DHT22;54412;51.206;6.888;2022-11-09T03:21:39;14.90;99.90
5246;DHT22;54412;51.206;6.888;2022-11-09T03:24:05;14.90;99.90
5246;DHT22;54412;51.206;6.888;2022-11-09T03:26:32;14.90;99.90
5246;DHT22;54412;51.206;6.888;2022-11-09T03:28:57;14.90;99.90
5246;DHT22;54412;51.206;6.888;2022-11-09T03:31:23;14.90;99.90
5246;DHT22;54412;51.206;6.888;2022-11-09T03:33:49;14.90;99.90
5246;DHT22;54412;51.206;6.888;2022-11-09T03:36:14;15.00;99.90
5246;DHT22;54412;51.206;6.888;2022-11-09T03:38:40;15.00;99.90
5246;DHT22;54412;51.206;6.888;2022-11-09T03:41:06;14.90;99.90
5246;DHT22;54412;51.206;6.888;2022-11-09T03:43:31;14.90;99.90
5246;DHT22;54412;51.206;6.888;2022-11-09T03:45:57;15.00;99.90
5246;DHT22;54412;51.206;6.888;2022-11-09T03:48:23;14.90;99.90
5246;DHT22;54412;51.206;6.888;2022-11-09T03:50:49;15.00;99.90
5246;DHT22;54412;51.206;6.888;2022-11-09T03:53:15;15.00;99.90
5246;DHT22;54412;51.206;6.888;2022-11-09T03:55:40;14.90;99.90
5246;DHT22;54412;51.206;6.888;2022-11-09T03:58:08;14.90;99.90
5246;DHT22;54412;51.206;6.888;2022-11-09T04:00:35;14.90;99.90
5246;DHT22;54412;51.206;6.888;2022-11-09T04:03:01;14.90;99.90
5246;DHT22;54412;51.206;6.888;2022-11-09T04:05:27;14.90;99.90
5246;DHT22;54412;51.206;6.888;2022-11-09T04:07:55;14.90;99.90
5246;DHT22;54412;51.206;6.888;2022-11-09T04:10:23;14.90;99.90
5246;DHT22;54412;51.206;6.888;2022-11-09T04:12:50;14.90;99.90
5246;DHT22;54412;51.206;6.888;2022-11-09T04:15:16;14.90;99.90
5246;DHT22;54412;51.206;6.888;2022-11-09T04:17:42;14.90;99.90
5246;DHT22;54412;51.206;6.888;2022-11-09T04:20:09;14.90;99.90
5246;DHT22;54412;51.206;6.888;2022-11-09T04:22:35;14.90;99.90
5246;DHT22;54412;51.206;6.888;2022-11-09T04:25:02;14.90;99.90
5246;DHT22;54412;51.206;6.888;2022-11-09T04:27:28;14.90;99.90
5246;DHT22;54412;51.206;6.888;2022-11-09T04:29:54;14.90;99.90
5246;DHT22;54412;51.206;6.888;2022-11-09T04:32:20;15.00;99.90
5246;DHT22;54412;51.206;6.888;2022-11-09T04:34:45;15.00;99.90
5246;DHT22;54412;51.206;6.888;2022-11-09T04:37:11;15.00;99.90
5246;DHT22;54412;51.206;6.888;2022-11-09T04:39:36;14.90;99.90
5246;DHT22;54412;51.206;6.888;2022-11-09T04:42:02;14.90;99.90
5246;DHT22;54412;51.206;6.888;2022-11-09T04:44:28;14.90;99.90
5246;DHT22;54412;51.206;6.888;2022-11-09T04:46:54;14.90;99.90
5246;DHT22;54412;51.206;6.888;2022-11-09T04:49:20;14.90;99.90
5246;DHT22;54412;51.206;6.888;2022-11-09T04:51:46;15.00;99.90
5246;DHT22;54412;51.206;6.888;2022-11-09T04:54:11;15.00;99.90
5246;DHT22;54412;51.206;6.888;2022-11-09T04:56:37;14.90;99.90
5246;DHT22;54412;51.206;6.888;2022-11-09T04:59:03;14.90;99.90
5246;DHT22;54412;51.206;6.888;2022-11-09T05:01:28;14.90;99.90
5246;DHT22;54412;51.206;6.888;2022-11-09T05:03:54;14.90;99.90
5246;DHT22;54412;51.206;6.888;2022-11-09T05:06:20;14.90;99.90
5246;DHT22;54412;51.206;6.888;2022-11-09T05:09:06;14.90;99.90
5246;DHT22;54412;51.206;6.888;2022-11-09T05:11:33;14.90;99.90
5246;DHT22;54412;51.206;6.888;2022-11-09T05:14:00;14.80;99.90
5246;DHT22;54412;51.206;6.888;2022-11-09T05:16:27;14.80;99.90
5246;DHT22;54412;51.206;6.888;2022-11-09T05:18:53;14.80;99.90
5246;DHT22;54412;51.206;6.888;2022-11-09T05:21:20;14.80;99.90
5246;DHT22;54412;51.206;6.888;2022-11-09T05:23:46;14.80;99.90
5246;DHT22;54412;51.206;6.888;2022-11-09T05:26:28;14.70;99.90
5246;DHT22;54412;51.206;6.888;2022-11-09T05:28:56;14.70;99.90
5246;DHT22;54412;51.206;6.888;2022-11-09T05:31:23;14.70;99.90
5246;DHT22;54412;51.206;6.888;2022-11-09T05:33:51;14.60;99.90
5246;DHT22;54412;51.206;6.888;2022-11-09T05:36:17;14.70;99.90
5246;DHT22;54412;51.206;6.888;2022-11-09T05:38:44;14.70;99.90
5246;DHT22;54412;51.206;6.888;2022-11-09T05:41:10;14.70;99.90
5246;DHT22;54412;51.206;6.888;2022-11-09T05:43:36;14.60;99.90
5246;DHT22;54412;51.206;6.888;2022-11-09T05:46:02;14.60;99.90
5246;DHT22;54412;51.206;6.888;2022-11-09T05:48:28;14.60;99.90
5246;DHT22;54412;51.206;6.888;2022-11-09T05:50:54;14.60;99.90
5246;DHT22;54412;51.206;6.888;2022-11-09T05:53:19;14.60;99.90
5246;DHT22;54412;51.206;6.888;2022-11-09T05:55:45;14.60;99.90
5246;DHT22;54412;51.206;6.888;2022-11-09T05:58:11;14.50;99.90
5246;DHT22;54412;51.206;6.888;2022-11-09T06:00:36;14.50;99.90
5246;DHT22;54412;51.206;6.888;2022-11-09T06:03:06;14.50;99.90
5246;DHT22;54412;51.206;6.888;2022-11-09T06:05:35;14.40;99.90
5246;DHT22;54412;51.206;6.888;2022-11-09T06:08:07;14.40;99.90
5246;DHT22;54412;51.206;6.888;2022-11-09T06:10:34;14.40;99.90
5246;DHT22;54412;51.206;6.888;2022-11-09T06:13:01;14.30;99.90
5246;DHT22;54412;51.206;6.888;2022-11-09T06:15:26;14.30;99.90
5246;DHT22;54412;51.206;6.888;2022-11-09T06:17:53;14.40;99.90
5246;DHT22;54412;51.206;6.888;2022-11-09T06:20:20;14.40;99.90
5246;DHT22;54412;51.206;6.888;2022-11-09T06:25:20;14.40;99.90
5246;DHT22;54412;51.206;6.888;2022-11-09T06:27:46;14.40;99.90
5246;DHT22;54412;51.206;6.888;2022-11-09T06:30:13;14.40;99.90
5246;DHT22;54412;51.206;6.888;2022-11-09T06:32:39;14.30;99.90
5246;DHT22;54412;51.206;6.888;2022-11-09T06:35:05;14.40;99.90
5246;DHT22;54412;51.206;6.888;2022-11-09T06:37:32;14.40;99.90
5246;DHT22;54412;51.206;6.888;2022-11-09T06:39:57;14.30;99.90
5246;DHT22;54412;51.206;6.888;2022-11-09T06:42:23;14.40;99.90
5246;DHT22;54412;51.206;6.888;2022-11-09T06:44:49;14.30;99.90
5246;DHT22;54412;51.206;6.888;2022-11-09T06:47:14;14.30;99.90
5246;DHT22;54412;51.206;6.888;2022-11-09T06:49:40;14.30;99.90
5246;DHT22;54412;51.206;6.888;2022-11-09T06:52:06;14.20;99.90
5246;DHT22;54412;51.206;6.888;2022-11-09T06:54:31;14.10;99.90
5246;DHT22;54412;51.206;6.888;2022-11-09T06:56:59;14.10;99.90
5246;DHT22;54412;51.206;6.888;2022-11-09T06:59:25;14.00;99.90
5246;DHT22;54412;51.206;6.888;2022-11-09T07:01:51;14.10;99.90
5246;DHT22;54412;51.206;6.888;2022-11-09T07:04:17;14.10;99.90
5246;DHT22;54412;51.206;6.888;2022-11-09T07:06:42;14.10;99.90
5246;DHT22;54412;51.206;6.888;2022-11-09T07:09:09;14.10;99.90
5246;DHT22;54412;51.206;6.888;2022-11-09T07:11:35;14.00;99.90
5246;DHT22;54412;51.206;6.888;2022-11-09T07:14:01;14.00;99.90
5246;DHT22;54412;51.206;6.888;2022-11-09T07:16:28;14.10;99.90
5246;DHT22;54412;51.206;6.888;2022-11-09T07:18:54;14.10;99.90
5246;DHT22;54412;51.206;6.888;2022-11-09T07:21:20;14.10;99.90
5246;DHT22;54412;51.206;6.888;2022-11-09T07:23:47;14.10;99.90
5246;DHT22;54412;51.206;6.888;2022-11-09T07:26:14;14.20;99.90
5246;DHT22;54412;51.206;6.888;2022-11-09T07:28:40;14.20;99.90
5246;DHT22;54412;51.206;6.888;2022-11-09T07:31:07;14.20;99.90
5246;DHT22;54412;51.206;6.888;2022-11-09T07:33:33;14.20;99.90
5246;DHT22;54412;51.206;6.888;2022-11-09T07:36:00;14.20;99.90
5246;DHT22;54412;51.206;6.888;2022-11-09T07:38:28;14.20;99.90
5246;DHT22;54412;51.206;6.888;2022-11-09T07:40:57;14.20;99.90
5246;DHT22;54412;51.206;6.888;2022-11-09T07:43:24;14.20;99.90
5246;DHT22;54412;51.206;6.888;2022-11-09T07:45:51;14.10;99.90
5246;DHT22;54412;51.206;6.888;2022-11-09T07:48:17;14.10;99.90
5246;DHT22;54412;51.206;6.888;2022-11-09T07:50:43;14.20;99.90
5246;DHT22;54412;51.206;6.888;2022-11-09T07:53:14;14.20;99.90
5246;DHT22;54412;51.206;6.888;2022-11-09T07:55:40;14.00;99.90
5246;DHT22;54412;51.206;6.888;2022-11-09T07:58:11;14.00;99.90
5246;DHT22;54412;51.206;6.888;2022-11-09T08:00:40;14.10;99.90
5246;DHT22;54412;51.206;6.888;2022-11-09T08:03:07;14.20;99.90
5246;DHT22;54412;51.206;6.888;2022-11-09T08:05:33;14.10;99.90
5246;DHT22;54412;51.206;6.888;2022-11-09T08:08:02;14.20;99.90
5246;DHT22;54412;51.206;6.888;2022-11-09T08:10:30;14.20;99.90
5246;DHT22;54412;51.206;6.888;2022-11-09T08:13:00;14.40;99.90
5246;DHT22;54412;51.206;6.888;2022-11-09T08:15:28;14.50;99.90
5246;DHT22;54412;51.206;6.888;2022-11-09T08:18:02;14.60;99.90
5246;DHT22;54412;51.206;6.888;2022-11-09T08:20:30;14.80;99.90
5246;DHT22;54412;51.206;6.888;2022-11-09T08:22:56;14.90;99.90
5246;DHT22;54412;51.206;6.888;2022-11-09T08:25:22;15.00;99.90
5246;DHT22;54412;51.206;6.888;2022-11-09T08:27:48;15.10;99.90
5246;DHT22;54412;51.206;6.888;2022-11-09T08:30:16;15.10;99.90
5246;DHT22;54412;51.206;6.888;2022-11-09T08:32:46;15.30;99.90
5246;DHT22;54412;51.206;6.888;2022-11-09T08:35:16;15.40;99.90
5246;DHT22;54412;51.206;6.888;2022-11-09T08:37:46;15.50;99.90
5246;DHT22;54412;51.206;6.888;2022-11-09T08:40:14;15.70;99.90
5246;DHT22;54412;51.206;6.888;2022-11-09T08:42:42;15.60;99.90
5246;DHT22;54412;51.206;6.888;2022-11-09T08:45:08;15.80;99.90
5246;DHT22;54412;51.206;6.888;2022-11-09T08:47:35;16.20;99.90
5246;DHT22;54412;51.206;6.888;2022-11-09T08:50:01;16.20;99.90
5246;DHT22;54412;51.206;6.888;2022-11-09T08:52:29;16.50;99.90
5246;DHT22;54412;51.206;6.888;2022-11-09T08:54:55;16.40;99.90
5246;DHT22;54412;51.206;6.888;2022-11-09T08:57:21;16.40;99.90
5246;DHT22;54412;51.206;6.888;2022-11-09T08:59:47;16.60;99.90
5246;DHT22;54412;51.206;6.888;2022-11-09T09:02:13;16.70;99.90
5246;DHT22;54412;51.206;6.888;2022-11-09T09:04:39;16.70;99.90
5246;DHT22;54412;51.206;6.888;2022-11-09T09:07:06;16.90;99.90
5246;DHT22;54412;51.206;6.888;2022-11-09T09:09:32;16.80;99.90
5246;DHT22;54412;51.206;6.888;2022-11-09T09:11:59;16.80;99.90
5246;DHT22;54412;51.206;6.888;2022-11-09T09:14:25;16.70;99.90
5246;DHT22;54412;51.206;6.888;2022-11-09T09:16:51;16.90;99.90
5246;DHT22;54412;51.206;6.888;2022-11-09T09:19:16;17.10;99.90
5246;DHT22;54412;51.206;6.888;2022-11-09T09:21:42;17.00;99.90
5246;DHT22;54412;51.206;6.888;2022-11-09T09:24:08;16.60;99.90
5246;DHT22;54412;51.206;6.888;2022-11-09T09:26:34;16.60;99.90
5246;DHT22;54412;51.206;6.888;2022-11-09T09:28:59;16.50;99.90
5246;DHT22;54412;51.206;6.888;2022-11-09T09:31:25;16.70;99.90
5246;DHT22;54412;51.206;6.888;2022-11-09T09:33:51;16.90;99.90
5246;DHT22;54412;51.206;6.888;2022-11-09T09:36:19;17.00;99.90
5246;DHT22;54412;51.206;6.888;2022-11-09T09:38:49;16.90;99.90
5246;DHT22;54412;51.206;6.888;2022-11-09T09:41:39;17.20;99.90
5246;DHT22;54412;51.206;6.888;2022-11-09T09:47:13;17.10;99.90
5246;DHT22;54412;51.206;6.888;2022-11-09T09:49:52;16.60;99.90
5246;DHT22;54412;51.206;6.888;2022-11-09T09:55:36;15.90;99.90
5246;DHT22;54412;51.206;6.888;2022-11-09T09:58:13;16.10;99.90
5246;DHT22;54412;51.206;6.888;2022-11-09T10:00:44;16.10;99.90
5246;DHT22;54412;51.206;6.888;2022-11-09T10:03:16;16.10;99.90
5246;DHT22;54412;51.206;6.888;2022-11-09T10:05:57;16.10;99.90
5246;DHT22;54412;51.206;6.888;2022-11-09T10:15:30;16.00;99.90
5246;DHT22;54412;51.206;6.888;2022-11-09T10:21:32;16.10;99.90
5246;DHT22;54412;51.206;6.888;2022-11-09T10:24:23;16.10;99.90
5246;DHT22;54412;51.206;6.888;2022-11-09T10:27:01;16.10;99.90
5246;DHT22;54412;51.206;6.888;2022-11-09T10:29:45;16.00;99.90
5246;DHT22;54412;51.206;6.888;2022-11-09T10:32:19;16.30;99.90
5246;DHT22;54412;51.206;6.888;2022-11-09T10:37:32;16.00;99.90
5246;DHT22;54412;51.206;6.888;2022-11-09T10:42:48;15.90;99.90
5246;DHT22;54412;51.206;6.888;2022-11-09T10:45:31;15.80;99.90
5246;DHT22;54412;51.206;6.888;2022-11-09T10:48:02;15.60;99.90
5246;DHT22;54412;51.206;6.888;2022-11-09T10:53:14;15.90;99.90
5246;DHT22;54412;51.206;6.888;2022-11-09T10:58:47;16.10;99.90
5246;DHT22;54412;51.206;6.888;2022-11-09T11:01:19;16.20;99.90
5246;DHT22;54412;51.206;6.888;2022-11-09T11:03:52;16.40;99.90
5246;DHT22;54412;51.206;6.888;2022-11-09T11:11:34;17.00;99.90
5246;DHT22;54412;51.206;6.888;2022-11-09T11:14:28;17.20;99.90
5246;DHT22;54412;51.206;6.888;2022-11-09T11:16:54;17.30;99.90
5246;DHT22;54412;51.206;6.888;2022-11-09T11:22:19;17.30;99.90
5246;DHT22;54412;51.206;6.888;2022-11-09T11:24:55;17.60;99.90
5246;DHT22;54412;51.206;6.888;2022-11-09T11:32:56;16.90;99.90
5246;DHT22;54412;51.206;6.888;2022-11-09T11:40:50;17.20;99.90
5246;DHT22;54412;51.206;6.888;2022-11-09T11:47:16;17.10;99.90
5246;DHT22;54412;51.206;6.888;2022-11-09T11:56:31;17.70;99.90
5246;DHT22;54412;51.206;6.888;2022-11-09T11:59:19;17.60;99.90
5246;DHT22;54412;51.206;6.888;2022-11-09T12:08:49;17.50;99.90
5246;DHT22;54412;51.206;6.888;2022-11-09T12:14:48;17.60;99.90
5246;DHT22;54412;51.206;6.888;2022-11-09T12:20:52;17.20;99.90
5246;DHT22;54412;51.206;6.888;2022-11-09T12:29:42;17.20;99.90
5246;DHT22;54412;51.206;6.888;2022-11-09T12:35:40;16.80;99.90
5246;DHT22;54412;51.206;6.888;2022-11-09T12:40:56;16.60;99.90
5246;DHT22;54412;51.206;6.888;2022-11-09T12:43:51;16.60;99.90
5246;DHT22;54412;51.206;6.888;2022-11-09T12:46:28;16.60;99.90
5246;DHT22;54412;51.206;6.888;2022-11-09T12:49:02;16.40;99.90
5246;DHT22;54412;51.206;6.888;2022-11-09T12:51:30;16.30;99.90
5246;DHT22;54412;51.206;6.888;2022-11-09T12:53:59;16.10;99.90
5246;DHT22;54412;51.206;6.888;2022-11-09T12:56:41;16.20;99.90
5246;DHT22;54412;51.206;6.888;2022-11-09T12:59:20;16.10;99.90
5246;DHT22;54412;51.206;6.888;2022-11-09T13:01:56;16.10;99.90
5246;DHT22;54412;51.206;6.888;2022-11-09T13:04:24;16.10;99.90
5246;DHT22;54412;51.206;6.888;2022-11-09T13:09:29;16.10;99.90
5246;DHT22;54412;51.206;6.888;2022-11-09T13:11:55;16.00;99.90
5246;DHT22;54412;51.206;6.888;2022-11-09T13:16:48;16.00;99.90
5246;DHT22;54412;51.206;6.888;2022-11-09T13:21:59;15.70;99.90
5246;DHT22;54412;51.206;6.888;2022-11-09T13:24:58;15.70;99.90
5246;DHT22;54412;51.206;6.888;2022-11-09T13:29:58;16.00;99.90
5246;DHT22;54412;51.206;6.888;2022-11-09T13:32:29;16.40;99.90
5246;DHT22;54412;51.206;6.888;2022-11-09T13:35:01;16.50;99.90
5246;DHT22;54412;51.206;6.888;2022-11-09T13:43:03;16.00;99.90
5246;DHT22;54412;51.206;6.888;2022-11-09T13:45:51;15.90;99.90
5246;DHT22;54412;51.206;6.888;2022-11-09T13:54:01;15.80;99.90
5246;DHT22;54412;51.206;6.888;2022-11-09T14:02:00;16.30;99.90
5246;DHT22;54412;51.206;6.888;2022-11-09T14:04:27;16.50;99.90
5246;DHT22;54412;51.206;6.888;2022-11-09T14:07:27;16.40;99.90
5246;DHT22;54412;51.206;6.888;2022-11-09T14:16:22;16.00;99.90
5246;DHT22;54412;51.206;6.888;2022-11-09T14:29:27;15.60;99.90
5246;DHT22;54412;51.206;6.888;2022-11-09T14:32:01;15.60;99.90
5246;DHT22;54412;51.206;6.888;2022-11-09T14:34:40;15.60;99.90
5246;DHT22;54412;51.206;6.888;2022-11-09T14:37:06;15.50;99.90
5246;DHT22;54412;51.206;6.888;2022-11-09T14:39:32;15.50;99.90
5246;DHT22;54412;51.206;6.888;2022-11-09T14:41:59;15.40;99.90
5246;DHT22;54412;51.206;6.888;2022-11-09T14:44:30;15.40;99.90
5246;DHT22;54412;51.206;6.888;2022-11-09T14:47:05;15.50;99.90
5246;DHT22;54412;51.206;6.888;2022-11-09T14:49:40;15.40;99.90
5246;DHT22;54412;51.206;6.888;2022-11-09T14:52:08;15.30;99.90
5246;DHT22;54412;51.206;6.888;2022-11-09T14:54:40;15.30;99.90
5246;DHT22;54412;51.206;6.888;2022-11-09T14:57:11;15.30;99.90
5246;DHT22;54412;51.206;6.888;2022-11-09T14:59:42;15.30;99.90
5246;DHT22;54412;51.206;6.888;2022-11-09T15:02:14;15.40;99.90
5246;DHT22;54412;51.206;6.888;2022-11-09T15:05:00;15.40;99.90
5246;DHT22;54412;51.206;6.888;2022-11-09T15:07:31;15.30;99.90
5246;DHT22;54412;51.206;6.888;2022-11-09T15:10:04;15.50;99.90
5246;DHT22;54412;51.206;6.888;2022-11-09T15:12:48;15.50;99.90
5246;DHT22;54412;51.206;6.888;2022-11-09T15:15:21;15.50;99.90
5246;DHT22;54412;51.206;6.888;2022-11-09T15:17:49;15.50;99.90
5246;DHT22;54412;51.206;6.888;2022-11-09T15:22:50;15.40;99.90
5246;DHT22;54412;51.206;6.888;2022-11-09T15:25:35;15.40;99.90
5246;DHT22;54412;51.206;6.888;2022-11-09T15:28:20;15.20;99.90
5246;DHT22;54412;51.206;6.888;2022-11-09T15:36:02;15.10;99.90
5246;DHT22;54412;51.206;6.888;2022-11-09T15:38:37;15.10;99.90
5246;DHT22;54412;51.206;6.888;2022-11-09T15:41:11;15.00;99.90
5246;DHT22;54412;51.206;6.888;2022-11-09T15:43:41;15.00;99.90
5246;DHT22;54412;51.206;6.888;2022-11-09T15:46:13;15.00;99.90
5246;DHT22;54412;51.206;6.888;2022-11-09T15:48:41;15.10;99.90
5246;DHT22;54412;51.206;6.888;2022-11-09T15:51:10;15.00;99.90
5246;DHT22;54412;51.206;6.888;2022-11-09T15:53:36;15.00;99.90
5246;DHT22;54412;51.206;6.888;2022-11-09T15:56:03;15.00;99.90
5246;DHT22;54412;51.206;6.888;2022-11-09T15:58:29;15.00;99.90
5246;DHT22;54412;51.206;6.888;2022-11-09T16:00:55;14.90;99.90
5246;DHT22;54412;51.206;6.888;2022-11-09T16:03:21;14.90;99.90
5246;DHT22;54412;51.206;6.888;2022-11-09T16:05:47;14.80;99.90
5246;DHT22;54412;51.206;6.888;2022-11-09T16:08:13;14.80;99.90
5246;DHT22;54412;51.206;6.888;2022-11-09T16:10:40;14.90;99.90
5246;DHT22;54412;51.206;6.888;2022-11-09T16:13:07;14.90;99.90
5246;DHT22;54412;51.206;6.888;2022-11-09T16:15:35;15.00;99.90
5246;DHT22;54412;51.206;6.888;2022-11-09T16:18:02;14.90;99.90
5246;DHT22;54412;51.206;6.888;2022-11-09T16:20:29;14.70;99.90
5246;DHT22;54412;51.206;6.888;2022-11-09T16:22:55;14.60;99.90
5246;DHT22;54412;51.206;6.888;2022-11-09T16:25:21;14.60;99.90
5246;DHT22;54412;51.206;6.888;2022-11-09T16:27:47;14.60;99.90
5246;DHT22;54412;51.206;6.888;2022-11-09T16:30:13;14.50;99.90
5246;DHT22;54412;51.206;6.888;2022-11-09T16:32:40;14.50;99.90
5246;DHT22;54412;51.206;6.888;2022-11-09T16:35:06;14.50;99.90
5246;DHT22;54412;51.206;6.888;2022-11-09T16:37:35;14.50;99.90
5246;DHT22;54412;51.206;6.888;2022-11-09T16:40:06;14.50;99.90
5246;DHT22;54412;51.206;6.888;2022-11-09T16:42:35;14.40;99.90
5246;DHT22;54412;51.206;6.888;2022-11-09T16:45:11;14.40;99.90
5246;DHT22;54412;51.206;6.888;2022-11-09T16:47:45;14.30;99.90
5246;DHT22;54412;51.206;6.888;2022-11-09T16:50:13;14.30;99.90
5246;DHT22;54412;51.206;6.888;2022-11-09T16:52:39;14.20;99.90
5246;DHT22;54412;51.206;6.888;2022-11-09T16:55:05;14.20;99.90
5246;DHT22;54412;51.206;6.888;2022-11-09T16:57:33;14.30;99.90
5246;DHT22;54412;51.206;6.888;2022-11-09T16:59:59;14.20;99.90
5246;DHT22;54412;51.206;6.888;2022-11-09T17:02:25;14.20;99.90
5246;DHT22;54412;51.206;6.888;2022-11-09T17:04:52;14.30;99.90
5246;DHT22;54412;51.206;6.888;2022-11-09T17:07:19;14.20;99.90
5246;DHT22;54412;51.206;6.888;2022-11-09T17:09:44;14.30;99.90
5246;DHT22;54412;51.206;6.888;2022-11-09T17:12:10;14.30;99.90
5246;DHT22;54412;51.206;6.888;2022-11-09T17:14:36;14.30;99.90
5246;DHT22;54412;51.206;6.888;2022-11-09T17:17:02;14.20;99.90
5246;DHT22;54412;51.206;6.888;2022-11-09T17:19:32;14.20;99.90
5246;DHT22;54412;51.206;6.888;2022-11-09T17:21:58;14.10;99.90
5246;DHT22;54412;51.206;6.888;2022-11-09T17:24:25;14.00;99.90
5246;DHT22;54412;51.206;6.888;2022-11-09T17:26:52;14.10;99.90
5246;DHT22;54412;51.206;6.888;2022-11-09T17:29:17;14.10;99.90
5246;DHT22;54412;51.206;6.888;2022-11-09T17:31:43;14.10;99.90
5246;DHT22;54412;51.206;6.888;2022-11-09T17:34:09;14.20;99.90
5246;DHT22;54412;51.206;6.888;2022-11-09T17:36:36;14.00;99.90
5246;DHT22;54412;51.206;6.888;2022-11-09T17:39:02;13.90;99.90
5246;DHT22;54412;51.206;6.888;2022-11-09T17:41:29;13.90;99.90
5246;DHT22;54412;51.206;6.888;2022-11-09T17:43:55;14.00;99.90
5246;DHT22;54412;51.206;6.888;2022-11-09T17:46:21;14.00;99.90
5246;DHT22;54412;51.206;6.888;2022-11-09T17:48:48;14.00;99.90
5246;DHT22;54412;51.206;6.888;2022-11-09T17:51:16;14.10;99.90
5246;DHT22;54412;51.206;6.888;2022-11-09T17:53:43;13.90;99.90
5246;DHT22;54412;51.206;6.888;2022-11-09T17:56:09;13.90;99.90
5246;DHT22;54412;51.206;6.888;2022-11-09T17:58:40;13.90;99.90
5246;DHT22;54412;51.206;6.888;2022-11-09T18:01:11;13.90;99.90
5246;DHT22;54412;51.206;6.888;2022-11-09T18:03:38;14.00;99.90
5246;DHT22;54412;51.206;6.888;2022-11-09T18:06:13;13.90;99.90
5246;DHT22;54412;51.206;6.888;2022-11-09T18:08:41;13.90;99.90
5246;DHT22;54412;51.206;6.888;2022-11-09T18:11:09;13.80;99.90
5246;DHT22;54412;51.206;6.888;2022-11-09T18:13:35;13.90;99.90
5246;DHT22;54412;51.206;6.888;2022-11-09T18:16:13;13.80;99.90